sensor_id;sensor_type;location;lat;lon;timestamp;pressure;altitude;pressure_sealevel;temperature;humidity
55470;BME280;41334;47.872;16.384;2023-08-12T00:04:10;99605.25;;;13.92;73.69
55470;BME280;41334;47.872;16.384;2023-08-12T00:09:16;99601.63;;;13.91;73.62
55470;BME280;41334;47.872;16.384;2023-08-12T00:14:19;99600.69;;;13.87;73.15
55470;BME280;41334;47.872;16.384;2023-08-12T00:19:21;99601.50;;;13.79;72.63
55470;BME280;41334;47.872;16.384;2023-08-12T00:24:23;99598.06;;;13.74;72.39
55470;BME280;41334;47.872;16.384;2023-08-12T00:29:25;99598.88;;;13.65;72.10
55470;BME280;41334;47.872;16.384;2023-08-12T00:34:27;99587.75;;;13.57;72.25
55470;BME280;41334;47.872;16.384;2023-08-12T00:39:29;99590.34;;;13.53;72.34
55470;BME280;41334;47.872;16.384;2023-08-12T00:44:31;99588.06;;;13.46;72.37
55470;BME280;41334;47.872;16.384;2023-08-12T00:49:33;99591.34;;;13.40;72.58
55470;BME280;41334;47.872;16.384;2023-08-12T00:54:35;99593.47;;;13.34;73.24
55470;BME280;41334;47.872;16.384;2023-08-12T00:59:37;99600.34;;;13.28;73.31
55470;BME280;41334;47.872;16.384;2023-08-12T01:04:39;99598.22;;;13.25;74.56
55470;BME280;41334;47.872;16.384;2023-08-12T01:09:41;99596.41;;;13.20;72.74
55470;BME280;41334;47.872;16.384;2023-08-12T01:15:14;99603.63;;;13.13;73.33
55470;BME280;41334;47.872;16.384;2023-08-12T01:20:20;99600.34;;;13.02;73.50
55470;BME280;41334;47.872;16.384;2023-08-12T01:25:28;99595.75;;;12.98;75.11
55470;BME280;41334;47.872;16.384;2023-08-12T01:30:30;99600.13;;;12.90;73.59
55470;BME280;41334;47.872;16.384;2023-08-12T01:35:46;99593.06;;;12.84;74.13
55470;BME280;41334;47.872;16.384;2023-08-12T01:40:50;99597.78;;;12.75;74.91
55470;BME280;41334;47.872;16.384;2023-08-12T01:45:53;99586.50;;;12.71;74.24
55470;BME280;41334;47.872;16.384;2023-08-12T01:50:55;99592.06;;;12.71;73.83
55470;BME280;41334;47.872;16.384;2023-08-12T01:55:57;99588.47;;;12.71;74.45
55470;BME280;41334;47.872;16.384;2023-08-12T02:00:59;99582.75;;;12.67;74.42
55470;BME280;41334;47.872;16.384;2023-08-12T02:06:01;99580.28;;;12.65;74.57
55470;BME280;41334;47.872;16.384;2023-08-12T02:11:03;99588.09;;;12.63;74.26
55470;BME280;41334;47.872;16.384;2023-08-12T02:16:05;99595.16;;;12.61;74.47
55470;BME280;41334;47.872;16.384;2023-08-12T02:21:07;99592.53;;;12.56;75.28
55470;BME280;41334;47.872;16.384;2023-08-12T02:26:09;99592.66;;;12.51;75.39
55470;BME280;41334;47.872;16.384;2023-08-12T02:31:11;99591.31;;;12.48;74.64
55470;BME280;41334;47.872;16.384;2023-08-12T02:36:13;99592.47;;;12.47;75.50
55470;BME280;41334;47.872;16.384;2023-08-12T02:41:14;99589.31;;;12.40;74.87
55470;BME280;41334;47.872;16.384;2023-08-12T02:46:16;99584.22;;;12.33;75.61
55470;BME280;41334;47.872;16.384;2023-08-12T02:51:19;99588.09;;;12.24;75.33
55470;BME280;41334;47.872;16.384;2023-08-12T02:56:21;99589.25;;;12.23;74.92
55470;BME280;41334;47.872;16.384;2023-08-12T03:01:23;99592.31;;;12.21;75.18
55470;BME280;41334;47.872;16.384;2023-08-12T03:06:26;99592.47;;;12.16;75.36
55470;BME280;41334;47.872;16.384;2023-08-12T03:11:28;99594.56;;;12.10;76.23
55470;BME280;41334;47.872;16.384;2023-08-12T03:16:32;99606.47;;;12.02;76.40
55470;BME280;41334;47.872;16.384;2023-08-12T03:21:34;99601.38;;;11.96;75.68
55470;BME280;41334;47.872;16.384;2023-08-12T03:26:36;99601.38;;;11.96;77.06
55470;BME280;41334;47.872;16.384;2023-08-12T03:31:39;99609.38;;;11.97;75.68
55470;BME280;41334;47.872;16.384;2023-08-12T03:36:42;99608.72;;;12.00;77.11
55470;BME280;41334;47.872;16.384;2023-08-12T03:41:44;99607.59;;;12.01;75.91
55470;BME280;41334;47.872;16.384;2023-08-12T03:46:46;99617.72;;;12.06;75.29
55470;BME280;41334;47.872;16.384;2023-08-12T03:51:48;99608.78;;;12.09;76.28
55470;BME280;41334;47.872;16.384;2023-08-12T03:56:50;99621.72;;;12.13;75.35
55470;BME280;41334;47.872;16.384;2023-08-12T04:01:52;99619.69;;;12.28;76.20
55470;BME280;41334;47.872;16.384;2023-08-12T04:06:55;99619.69;;;12.36;74.78
55470;BME280;41334;47.872;16.384;2023-08-12T04:11:56;99619.94;;;12.49;74.17
55470;BME280;41334;47.872;16.384;2023-08-12T04:16:58;99613.28;;;13.59;71.55
55470;BME280;41334;47.872;16.384;2023-08-12T04:22:00;99610.28;;;14.92;66.56
55470;BME280;41334;47.872;16.384;2023-08-12T04:27:03;99608.94;;;16.03;62.16
55470;BME280;41334;47.872;16.384;2023-08-12T04:32:05;99611.63;;;17.18;59.05
55470;BME280;41334;47.872;16.384;2023-08-12T04:37:07;99606.38;;;18.88;53.99
55470;BME280;41334;47.872;16.384;2023-08-12T04:42:09;99614.03;;;17.32;56.60
55470;BME280;41334;47.872;16.384;2023-08-12T04:47:12;99617.72;;;15.80;61.69
55470;BME280;41334;47.872;16.384;2023-08-12T04:52:15;99612.09;;;15.18;64.64
55470;BME280;41334;47.872;16.384;2023-08-12T04:57:17;99602.66;;;14.81;65.22
55470;BME280;41334;47.872;16.384;2023-08-12T05:02:19;99598.00;;;14.55;67.07
55470;BME280;41334;47.872;16.384;2023-08-12T05:07:23;99610.81;;;14.47;67.75
55470;BME280;41334;47.872;16.384;2023-08-12T05:12:25;99606.03;;;14.57;67.88
55470;BME280;41334;47.872;16.384;2023-08-12T05:17:27;99613.72;;;14.60;68.83
55470;BME280;41334;47.872;16.384;2023-08-12T05:22:30;99616.13;;;14.70;68.41
55470;BME280;41334;47.872;16.384;2023-08-12T05:27:32;99612.13;;;14.88;68.94
55470;BME280;41334;47.872;16.384;2023-08-12T05:32:34;99611.50;;;15.12;69.04
55470;BME280;41334;47.872;16.384;2023-08-12T05:37:35;99611.72;;;15.49;66.97
55470;BME280;41334;47.872;16.384;2023-08-12T05:42:37;99612.78;;;15.98;66.28
55470;BME280;41334;47.872;16.384;2023-08-12T05:47:39;99610.88;;;16.36;65.58
55470;BME280;41334;47.872;16.384;2023-08-12T05:52:41;99618.47;;;16.47;65.84
55470;BME280;41334;47.872;16.384;2023-08-12T05:57:43;99610.38;;;16.79;65.48
55470;BME280;41334;47.872;16.384;2023-08-12T06:02:44;99612.66;;;17.26;64.78
55470;BME280;41334;47.872;16.384;2023-08-12T06:07:46;99607.69;;;17.59;63.65
55470;BME280;41334;47.872;16.384;2023-08-12T06:12:48;99596.03;;;17.85;61.94
55470;BME280;41334;47.872;16.384;2023-08-12T06:17:50;99596.19;;;18.21;61.95
55470;BME280;41334;47.872;16.384;2023-08-12T06:22:52;99599.44;;;18.51;62.44
55470;BME280;41334;47.872;16.384;2023-08-12T06:27:54;99597.31;;;18.79;59.94
55470;BME280;41334;47.872;16.384;2023-08-12T06:32:56;99600.09;;;19.11;58.60
55470;BME280;41334;47.872;16.384;2023-08-12T06:37:58;99598.16;;;19.31;58.17
55470;BME280;41334;47.872;16.384;2023-08-12T06:43:00;99600.69;;;19.55;58.21
55470;BME280;41334;47.872;16.384;2023-08-12T06:48:02;99599.06;;;19.93;56.95
55470;BME280;41334;47.872;16.384;2023-08-12T06:53:05;99588.47;;;20.06;55.22
55470;BME280;41334;47.872;16.384;2023-08-12T06:58:08;99571.81;;;20.39;56.31
55470;BME280;41334;47.872;16.384;2023-08-12T07:03:10;99568.94;;;20.36;56.81
55470;BME280;41334;47.872;16.384;2023-08-12T07:08:12;99570.94;;;20.85;56.07
55470;BME280;41334;47.872;16.384;2023-08-12T07:13:14;99560.16;;;21.13;54.72
55470;BME280;41334;47.872;16.384;2023-08-12T07:18:16;99574.50;;;21.31;54.68
55470;BME280;41334;47.872;16.384;2023-08-12T07:23:18;99563.25;;;21.65;53.66
55470;BME280;41334;47.872;16.384;2023-08-12T07:28:20;99562.28;;;21.84;53.20
55470;BME280;41334;47.872;16.384;2023-08-12T07:33:22;99563.28;;;22.02;52.73
55470;BME280;41334;47.872;16.384;2023-08-12T07:38:24;99577.25;;;22.25;50.56
55470;BME280;41334;47.872;16.384;2023-08-12T07:43:26;99568.03;;;22.31;51.18
55470;BME280;41334;47.872;16.384;2023-08-12T07:48:27;99558.69;;;22.24;50.40
55470;BME280;41334;47.872;16.384;2023-08-12T07:53:32;99557.06;;;22.64;49.21
55470;BME280;41334;47.872;16.384;2023-08-12T07:58:34;99554.75;;;22.80;49.63
55470;BME280;41334;47.872;16.384;2023-08-12T08:03:35;99557.69;;;22.94;50.60
55470;BME280;41334;47.872;16.384;2023-08-12T08:08:37;99559.59;;;23.38;49.46
55470;BME280;41334;47.872;16.384;2023-08-12T08:13:39;99554.88;;;23.64;47.29
55470;BME280;41334;47.872;16.384;2023-08-12T08:18:41;99561.03;;;23.80;47.38
55470;BME280;41334;47.872;16.384;2023-08-12T08:23:43;99550.97;;;23.97;46.17
55470;BME280;41334;47.872;16.384;2023-08-12T08:28:45;99543.75;;;24.21;46.94
55470;BME280;41334;47.872;16.384;2023-08-12T08:33:47;99536.44;;;24.16;47.38
55470;BME280;41334;47.872;16.384;2023-08-12T08:38:49;99536.50;;;24.48;47.29
55470;BME280;41334;47.872;16.384;2023-08-12T08:43:54;99528.34;;;24.89;46.45
55470;BME280;41334;47.872;16.384;2023-08-12T08:48:59;99534.88;;;24.76;47.22
55470;BME280;41334;47.872;16.384;2023-08-12T08:54:02;99526.72;;;25.17;47.63
55470;BME280;41334;47.872;16.384;2023-08-12T08:59:08;99521.81;;;25.32;47.45
55470;BME280;41334;47.872;16.384;2023-08-12T09:04:11;99518.47;;;25.55;46.49
55470;BME280;41334;47.872;16.384;2023-08-12T09:09:16;99518.53;;;25.44;44.89
55470;BME280;41334;47.872;16.384;2023-08-12T09:14:21;99517.94;;;25.88;45.47
55470;BME280;41334;47.872;16.384;2023-08-12T09:19:23;99506.56;;;25.92;45.19
55470;BME280;41334;47.872;16.384;2023-08-12T09:24:26;99512.84;;;26.17;44.72
55470;BME280;41334;47.872;16.384;2023-08-12T09:29:35;99499.72;;;26.45;44.47
55470;BME280;41334;47.872;16.384;2023-08-12T09:34:38;99506.03;;;26.60;43.31
55470;BME280;41334;47.872;16.384;2023-08-12T09:39:47;99496.22;;;26.71;45.34
55470;BME280;41334;47.872;16.384;2023-08-12T09:44:50;99496.88;;;27.24;43.71
55470;BME280;41334;47.872;16.384;2023-08-12T09:49:52;99493.88;;;27.04;42.83
55470;BME280;41334;47.872;16.384;2023-08-12T09:54:55;99488.78;;;27.22;42.60
55470;BME280;41334;47.872;16.384;2023-08-12T09:59:58;99485.72;;;27.40;42.75
55470;BME280;41334;47.872;16.384;2023-08-12T10:05:01;99476.16;;;27.58;42.61
55470;BME280;41334;47.872;16.384;2023-08-12T10:10:04;99471.47;;;27.74;42.46
55470;BME280;41334;47.872;16.384;2023-08-12T10:15:07;99474.81;;;27.66;42.73
55470;BME280;41334;47.872;16.384;2023-08-12T10:20:20;99469.09;;;27.69;43.42
55470;BME280;41334;47.872;16.384;2023-08-12T10:25:24;99468.44;;;27.85;42.95
55470;BME280;41334;47.872;16.384;2023-08-12T10:30:30;99459.88;;;27.89;42.15
55470;BME280;41334;47.872;16.384;2023-08-12T10:35:49;99456.19;;;28.42;41.38
55470;BME280;41334;47.872;16.384;2023-08-12T10:40:51;99462.22;;;28.68;38.14
55470;BME280;41334;47.872;16.384;2023-08-12T10:45:53;99445.66;;;28.83;37.76
55470;BME280;41334;47.872;16.384;2023-08-12T10:50:59;99456.59;;;28.64;35.13
55470;BME280;41334;47.872;16.384;2023-08-12T10:56:03;99447.28;;;28.84;33.52
55470;BME280;41334;47.872;16.384;2023-08-12T11:01:11;99438.75;;;29.03;32.43
55470;BME280;41334;47.872;16.384;2023-08-12T11:06:15;99434.63;;;29.24;32.51
55470;BME280;41334;47.872;16.384;2023-08-12T11:11:22;99434.63;;;29.24;32.51
55470;BME280;41334;47.872;16.384;2023-08-12T11:16:34;99425.44;;;29.73;33.84
55470;BME280;41334;47.872;16.384;2023-08-12T11:21:37;99424.00;;;29.65;31.34
55470;BME280;41334;47.872;16.384;2023-08-12T11:26:39;99424.56;;;29.40;32.01
55470;BME280;41334;47.872;16.384;2023-08-12T11:31:41;99412.81;;;29.54;32.96
55470;BME280;41334;47.872;16.384;2023-08-12T11:36:43;99408.06;;;29.47;31.81
55470;BME280;41334;47.872;16.384;2023-08-12T11:41:45;99398.88;;;29.92;31.45
55470;BME280;41334;47.872;16.384;2023-08-12T11:46:47;99398.81;;;29.60;31.78
55470;BME280;41334;47.872;16.384;2023-08-12T11:51:49;99391.72;;;29.84;31.74
55470;BME280;41334;47.872;16.384;2023-08-12T11:56:52;99380.69;;;29.86;33.23
55470;BME280;41334;47.872;16.384;2023-08-12T12:01:54;99374.50;;;30.20;32.13
55470;BME280;41334;47.872;16.384;2023-08-12T12:06:56;99375.81;;;30.16;31.86
55470;BME280;41334;47.872;16.384;2023-08-12T12:11:59;99371.34;;;30.31;30.37
55470;BME280;41334;47.872;16.384;2023-08-12T12:17:07;99361.47;;;29.87;30.70
55470;BME280;41334;47.872;16.384;2023-08-12T12:22:09;99352.09;;;30.02;31.01
55470;BME280;41334;47.872;16.384;2023-08-12T12:27:13;99353.16;;;29.92;32.64
55470;BME280;41334;47.872;16.384;2023-08-12T12:32:18;99354.22;;;30.15;31.86
55470;BME280;41334;47.872;16.384;2023-08-12T12:37:21;99342.06;;;30.11;32.53
55470;BME280;41334;47.872;16.384;2023-08-12T12:42:22;99342.78;;;30.15;31.02
55470;BME280;41334;47.872;16.384;2023-08-12T12:47:24;99335.53;;;30.10;30.64
55470;BME280;41334;47.872;16.384;2023-08-12T12:52:26;99328.69;;;30.07;30.26
55470;BME280;41334;47.872;16.384;2023-08-12T12:57:28;99329.81;;;30.10;30.82
55470;BME280;41334;47.872;16.384;2023-08-12T13:02:30;99335.81;;;30.16;30.31
55470;BME280;41334;47.872;16.384;2023-08-12T13:07:33;99333.22;;;30.05;30.89
55470;BME280;41334;47.872;16.384;2023-08-12T13:12:35;99324.91;;;30.11;30.48
55470;BME280;41334;47.872;16.384;2023-08-12T13:17:37;99323.53;;;30.31;30.86
55470;BME280;41334;47.872;16.384;2023-08-12T13:22:39;99320.22;;;30.33;29.98
55470;BME280;41334;47.872;16.384;2023-08-12T13:27:42;99318.63;;;30.32;29.87
55470;BME280;41334;47.872;16.384;2023-08-12T13:32:43;99308.75;;;30.04;30.12
55470;BME280;41334;47.872;16.384;2023-08-12T13:37:45;99309.66;;;30.01;29.85
55470;BME280;41334;47.872;16.384;2023-08-12T13:42:47;99289.03;;;29.77;32.08
55470;BME280;41334;47.872;16.384;2023-08-12T13:47:50;99285.28;;;30.13;31.39
55470;BME280;41334;47.872;16.384;2023-08-12T13:52:53;99293.00;;;30.28;33.31
55470;BME280;41334;47.872;16.384;2023-08-12T13:57:57;99285.34;;;30.09;29.47
55470;BME280;41334;47.872;16.384;2023-08-12T14:02:59;99279.31;;;29.91;30.35
55470;BME280;41334;47.872;16.384;2023-08-12T14:08:01;99272.44;;;29.55;31.96
55470;BME280;41334;47.872;16.384;2023-08-12T14:13:03;99277.41;;;30.00;30.83
55470;BME280;41334;47.872;16.384;2023-08-12T14:18:05;99273.66;;;30.03;30.90
55470;BME280;41334;47.872;16.384;2023-08-12T14:23:07;99271.38;;;29.82;31.61
55470;BME280;41334;47.872;16.384;2023-08-12T14:28:10;99269.88;;;30.06;32.57
55470;BME280;41334;47.872;16.384;2023-08-12T14:33:12;99259.03;;;29.69;31.86
55470;BME280;41334;47.872;16.384;2023-08-12T14:38:14;99258.69;;;29.50;31.93
55470;BME280;41334;47.872;16.384;2023-08-12T14:43:16;99251.25;;;29.37;31.94
55470;BME280;41334;47.872;16.384;2023-08-12T14:48:18;99243.78;;;29.59;35.06
55470;BME280;41334;47.872;16.384;2023-08-12T14:53:20;99252.25;;;29.30;32.79
55470;BME280;41334;47.872;16.384;2023-08-12T14:58:22;99238.50;;;29.41;32.85
55470;BME280;41334;47.872;16.384;2023-08-12T15:03:24;99239.97;;;29.13;32.82
55470;BME280;41334;47.872;16.384;2023-08-12T15:08:26;99229.28;;;29.17;33.50
55470;BME280;41334;47.872;16.384;2023-08-12T15:13:28;99221.22;;;29.32;33.80
55470;BME280;41334;47.872;16.384;2023-08-12T15:18:30;99223.69;;;29.30;35.16
55470;BME280;41334;47.872;16.384;2023-08-12T15:23:33;99219.59;;;29.31;36.64
55470;BME280;41334;47.872;16.384;2023-08-12T15:28:37;99217.16;;;29.13;37.43
55470;BME280;41334;47.872;16.384;2023-08-12T15:33:39;99214.38;;;29.10;36.33
55470;BME280;41334;47.872;16.384;2023-08-12T15:38:41;99214.81;;;29.08;35.31
55470;BME280;41334;47.872;16.384;2023-08-12T15:43:43;99215.69;;;29.05;34.09
55470;BME280;41334;47.872;16.384;2023-08-12T15:48:45;99216.28;;;29.16;35.20
55470;BME280;41334;47.872;16.384;2023-08-12T15:53:47;99210.63;;;28.96;36.91
55470;BME280;41334;47.872;16.384;2023-08-12T15:58:49;99211.94;;;28.92;36.17
55470;BME280;41334;47.872;16.384;2023-08-12T16:03:51;99202.31;;;28.66;36.91
55470;BME280;41334;47.872;16.384;2023-08-12T16:08:54;99200.25;;;28.30;36.05
55470;BME280;41334;47.872;16.384;2023-08-12T16:14:15;99195.94;;;28.42;36.82
55470;BME280;41334;47.872;16.384;2023-08-12T16:19:17;99195.78;;;28.29;36.72
55470;BME280;41334;47.872;16.384;2023-08-12T16:24:19;99196.81;;;28.19;37.23
55470;BME280;41334;47.872;16.384;2023-08-12T16:29:21;99199.31;;;27.73;38.81
55470;BME280;41334;47.872;16.384;2023-08-12T16:34:23;99199.31;;;27.73;39.43
55470;BME280;41334;47.872;16.384;2023-08-12T16:39:25;99196.88;;;27.72;38.55
55470;BME280;41334;47.872;16.384;2023-08-12T16:44:27;99205.91;;;27.67;38.83
55470;BME280;41334;47.872;16.384;2023-08-12T16:49:28;99204.00;;;27.60;39.42
55470;BME280;41334;47.872;16.384;2023-08-12T16:54:30;99201.81;;;27.44;40.65
55470;BME280;41334;47.872;16.384;2023-08-12T16:59:34;99199.41;;;27.19;40.15
55470;BME280;41334;47.872;16.384;2023-08-12T17:04:36;99199.31;;;27.00;41.26
55470;BME280;41334;47.872;16.384;2023-08-12T17:09:38;99194.91;;;26.95;43.11
55470;BME280;41334;47.872;16.384;2023-08-12T17:14:40;99188.34;;;26.71;42.31
55470;BME280;41334;47.872;16.384;2023-08-12T17:19:45;99185.91;;;26.69;42.77
55470;BME280;41334;47.872;16.384;2023-08-12T17:24:47;99181.13;;;27.67;41.30
55470;BME280;41334;47.872;16.384;2023-08-12T17:29:49;99184.53;;;28.22;39.77
55470;BME280;41334;47.872;16.384;2023-08-12T17:34:51;99180.91;;;28.21;38.84
55470;BME280;41334;47.872;16.384;2023-08-12T17:39:53;99172.00;;;27.96;39.68
55470;BME280;41334;47.872;16.384;2023-08-12T17:44:55;99166.75;;;27.51;40.18
55470;BME280;41334;47.872;16.384;2023-08-12T17:49:57;99184.84;;;26.26;42.85
55470;BME280;41334;47.872;16.384;2023-08-12T17:54:59;99174.63;;;25.19;45.11
55470;BME280;41334;47.872;16.384;2023-08-12T18:00:01;99192.41;;;24.63;47.04
55470;BME280;41334;47.872;16.384;2023-08-12T18:05:14;99191.41;;;24.11;47.85
55470;BME280;41334;47.872;16.384;2023-08-12T18:10:16;99199.16;;;23.71;49.03
55470;BME280;41334;47.872;16.384;2023-08-12T18:15:18;99205.28;;;23.41;50.21
55470;BME280;41334;47.872;16.384;2023-08-12T18:20:20;99206.88;;;23.14;50.89
55470;BME280;41334;47.872;16.384;2023-08-12T18:25:22;99212.88;;;22.87;51.41
55470;BME280;41334;47.872;16.384;2023-08-12T18:30:25;99227.38;;;22.68;51.72
55470;BME280;41334;47.872;16.384;2023-08-12T18:35:26;99226.06;;;22.40;52.76
55470;BME280;41334;47.872;16.384;2023-08-12T18:46:02;99229.91;;;22.03;54.45
55470;BME280;41334;47.872;16.384;2023-08-12T18:51:05;99224.94;;;21.86;54.81
55470;BME280;41334;47.872;16.384;2023-08-12T18:56:07;99237.38;;;21.71;55.46
55470;BME280;41334;47.872;16.384;2023-08-12T19:01:09;99233.19;;;21.58;55.53
55470;BME280;41334;47.872;16.384;2023-08-12T19:06:11;99244.81;;;21.45;55.56
55470;BME280;41334;47.872;16.384;2023-08-12T19:11:13;99247.94;;;21.33;56.55
55470;BME280;41334;47.872;16.384;2023-08-12T19:16:15;99249.81;;;21.22;57.08
55470;BME280;41334;47.872;16.384;2023-08-12T19:21:17;99248.91;;;21.11;56.32
55470;BME280;41334;47.872;16.384;2023-08-12T19:26:19;99246.44;;;21.02;57.10
55470;BME280;41334;47.872;16.384;2023-08-12T19:31:21;99239.88;;;20.91;56.65
55470;BME280;41334;47.872;16.384;2023-08-12T19:36:24;99245.38;;;20.80;56.63
55470;BME280;41334;47.872;16.384;2023-08-12T19:41:26;99248.09;;;20.69;57.53
55470;BME280;41334;47.872;16.384;2023-08-12T19:46:31;99239.94;;;20.61;57.58
55470;BME280;41334;47.872;16.384;2023-08-12T19:51:33;99245.03;;;20.52;57.56
55470;BME280;41334;47.872;16.384;2023-08-12T19:56:35;99252.97;;;20.42;58.48
55470;BME280;41334;47.872;16.384;2023-08-12T20:01:37;99254.84;;;20.31;57.83
55470;BME280;41334;47.872;16.384;2023-08-12T20:06:39;99253.53;;;20.21;58.09
55470;BME280;41334;47.872;16.384;2023-08-12T20:11:41;99247.44;;;20.16;58.77
55470;BME280;41334;47.872;16.384;2023-08-12T20:16:43;99244.00;;;20.03;59.78
55470;BME280;41334;47.872;16.384;2023-08-12T20:21:44;99243.09;;;19.95;58.77
55470;BME280;41334;47.872;16.384;2023-08-12T20:26:46;99249.38;;;19.85;59.15
55470;BME280;41334;47.872;16.384;2023-08-12T20:31:49;99239.59;;;19.76;59.03
55470;BME280;41334;47.872;16.384;2023-08-12T20:36:51;99244.31;;;19.68;59.95
55470;BME280;41334;47.872;16.384;2023-08-12T20:41:53;99258.63;;;19.59;59.49
55470;BME280;41334;47.872;16.384;2023-08-12T20:46:55;99254.13;;;19.55;59.69
55470;BME280;41334;47.872;16.384;2023-08-12T20:51:57;99249.59;;;19.47;60.12
55470;BME280;41334;47.872;16.384;2023-08-12T20:57:00;99256.66;;;19.37;59.84
55470;BME280;41334;47.872;16.384;2023-08-12T21:02:02;99259.34;;;19.30;60.34
55470;BME280;41334;47.872;16.384;2023-08-12T21:07:05;99250.69;;;19.19;60.52
55470;BME280;41334;47.872;16.384;2023-08-12T21:12:07;99257.00;;;19.12;60.77
55470;BME280;41334;47.872;16.384;2023-08-12T21:17:10;99250.88;;;19.07;60.94
55470;BME280;41334;47.872;16.384;2023-08-12T21:22:12;99245.16;;;19.00;61.17
55470;BME280;41334;47.872;16.384;2023-08-12T21:27:14;99243.00;;;18.93;61.97
55470;BME280;41334;47.872;16.384;2023-08-12T21:32:16;99238.53;;;18.88;62.81
55470;BME280;41334;47.872;16.384;2023-08-12T21:37:18;99242.47;;;18.84;63.47
55470;BME280;41334;47.872;16.384;2023-08-12T21:42:20;99252.81;;;18.80;62.11
55470;BME280;41334;47.872;16.384;2023-08-12T21:47:22;99250.22;;;18.71;61.76
55470;BME280;41334;47.872;16.384;2023-08-12T21:52:24;99248.16;;;18.68;62.55
55470;BME280;41334;47.872;16.384;2023-08-12T21:57:26;99251.66;;;18.61;62.68
55470;BME280;41334;47.872;16.384;2023-08-12T22:02:28;99240.66;;;18.53;64.25
55470;BME280;41334;47.872;16.384;2023-08-12T22:07:30;99239.34;;;18.47;62.44
55470;BME280;41334;47.872;16.384;2023-08-12T22:12:32;99248.81;;;18.42;64.18
55470;BME280;41334;47.872;16.384;2023-08-12T22:17:34;99257.44;;;18.33;63.89
55470;BME280;41334;47.872;16.384;2023-08-12T22:22:36;99257.69;;;18.25;nan
55470;BME280;41334;47.872;16.384;2023-08-12T22:27:37;99248.59;;;18.12;64.34
55470;BME280;41334;47.872;16.384;2023-08-12T22:32:40;99246.81;;;18.04;64.55
55470;BME280;41334;47.872;16.384;2023-08-12T22:37:42;99245.13;;;17.99;65.13
55470;BME280;41334;47.872;16.384;2023-08-12T22:42:44;99251.44;;;17.96;64.75
55470;BME280;41334;47.872;16.384;2023-08-12T22:47:46;99247.78;;;17.92;65.83
55470;BME280;41334;47.872;16.384;2023-08-12T22:52:48;99248.50;;;17.89;65.41
55470;BME280;41334;47.872;16.384;2023-08-12T22:57:49;99240.38;;;17.84;65.74
55470;BME280;41334;47.872;16.384;2023-08-12T23:02:51;99238.22;;;17.77;65.67
55470;BME280;41334;47.872;16.384;2023-08-12T23:07:54;99237.41;;;17.77;65.22
55470;BME280;41334;47.872;16.384;2023-08-12T23:12:55;99241.38;;;17.76;65.46
55470;BME280;41334;47.872;16.384;2023-08-12T23:17:57;99240.22;;;17.77;64.49
55470;BME280;41334;47.872;16.384;2023-08-12T23:22:59;99250.88;;;17.87;65.47
55470;BME280;41334;47.872;16.384;2023-08-12T23:28:02;99244.22;;;17.95;65.64
55470;BME280;41334;47.872;16.384;2023-08-12T23:33:04;99242.69;;;17.98;65.69
55470;BME280;41334;47.872;16.384;2023-08-12T23:38:07;99251.00;;;17.94;64.76
55470;BME280;41334;47.872;16.384;2023-08-12T23:43:08;99252.25;;;17.77;64.98
55470;BME280;41334;47.872;16.384;2023-08-12T23:48:10;99247.00;;;17.60;66.00
55470;BME280;41334;47.872;16.384;2023-08-12T23:53:12;99245.56;;;17.50;66.15
55470;BME280;41334;47.872;16.384;2023-08-12T23:58:14;99247.31;;;17.39;66.55
